Main page
METAR-TAF:

METAR-TAF

Airports :

Nan Nakhon Airport

Nan, Thailand

latitude: 18-46N, longitude: 100-46E, elevation: 200 m

Current weather observation

The report was made 6 hours and 41 minutes ago, at 13:00 UTC
Calm wind
Temperature 26°C
Humidity 89%
Pressure 1012 hPa
Visibility 10 km or more
Scattered clouds at a height of 4500 ft

METAR: VTCN 011300Z 00000KT 9999 SCT045 26/24 Q1012 NOSIG

Time: 02:41 (19:41 UTC)

Forecast

The report was made 2 hours and 41 minutes ago, at 17:00 UTC
Forecast valid from 01 at 18 UTC to 02 at 18 UTC
Wind 5 kt from the North
Visibility 10 km or more
Scattered clouds at a height of 4500 ft
Becoming
from 01 at 21 UTC to 01 at 23 UTC
Wind kt from the North
Visibility: 1500 m
mist
Becoming
from 02 at 01 UTC to 02 at 03 UTC
Wind 5 kt from the South
Visibility 10 km or more

TAF: VTCN 011700Z 0118/0218 36005KT 9999 SCT045 BECMG 0121/0123 00000KT 1500 BR BECMG 0201/0203 18005KT 9999 NSW

Weather observations and forecasts of more than 4000 airports (METAR and TAF reports).

The available stations are represented by yellow and red dots on the map.

Hover mouse over dot to see the name of the station.

Then click to see weather observations and forecasts.

To change the map : click on the green buttons with a black cross to zoom in, on the green button with a dash to zoom out, or on the green arrows for adjacent maps.


METAR-TAF: